sensor_id;sensor_type;location;lat;lon;timestamp;P1;durP1;ratioP1;P2;durP2;ratioP2
51384;SDS011;37478;55.682;37.462;2022-08-19T00:00:23;12.00;;;6.68;;
51384;SDS011;37478;55.682;37.462;2022-08-19T00:02:49;12.82;;;6.05;;
51384;SDS011;37478;55.682;37.462;2022-08-19T00:05:14;7.60;;;5.32;;
51384;SDS011;37478;55.682;37.462;2022-08-19T00:07:40;9.50;;;6.63;;
51384;SDS011;37478;55.682;37.462;2022-08-19T00:10:06;7.93;;;5.10;;
51384;SDS011;37478;55.682;37.462;2022-08-19T00:12:31;10.93;;;5.60;;
51384;SDS011;37478;55.682;37.462;2022-08-19T00:14:57;19.02;;;5.75;;
51384;SDS011;37478;55.682;37.462;2022-08-19T00:17:22;8.27;;;4.50;;
51384;SDS011;37478;55.682;37.462;2022-08-19T00:19:47;8.07;;;4.68;;
51384;SDS011;37478;55.682;37.462;2022-08-19T00:22:13;6.47;;;4.90;;
51384;SDS011;37478;55.682;37.462;2022-08-19T00:24:39;6.65;;;4.72;;
51384;SDS011;37478;55.682;37.462;2022-08-19T00:27:06;7.80;;;4.25;;
51384;SDS011;37478;55.682;37.462;2022-08-19T00:29:31;14.32;;;5.70;;
51384;SDS011;37478;55.682;37.462;2022-08-19T00:31:56;6.03;;;4.65;;
51384;SDS011;37478;55.682;37.462;2022-08-19T00:34:23;17.42;;;5.70;;
51384;SDS011;37478;55.682;37.462;2022-08-19T00:36:50;8.65;;;4.50;;
51384;SDS011;37478;55.682;37.462;2022-08-19T00:39:16;9.40;;;5.40;;
51384;SDS011;37478;55.682;37.462;2022-08-19T00:41:42;7.43;;;5.28;;
51384;SDS011;37478;55.682;37.462;2022-08-19T00:44:21;9.98;;;5.38;;
51384;SDS011;37478;55.682;37.462;2022-08-19T00:46:47;13.90;;;5.32;;
51384;SDS011;37478;55.682;37.462;2022-08-19T00:49:17;7.53;;;5.43;;
51384;SDS011;37478;55.682;37.462;2022-08-19T00:51:45;13.75;;;5.50;;
51384;SDS011;37478;55.682;37.462;2022-08-19T00:54:10;9.60;;;5.60;;
51384;SDS011;37478;55.682;37.462;2022-08-19T00:56:36;8.55;;;5.03;;
51384;SDS011;37478;55.682;37.462;2022-08-19T00:59:02;7.20;;;5.25;;
51384;SDS011;37478;55.682;37.462;2022-08-19T01:01:27;7.25;;;4.45;;
51384;SDS011;37478;55.682;37.462;2022-08-19T01:03:53;10.05;;;5.75;;
51384;SDS011;37478;55.682;37.462;2022-08-19T01:06:18;9.38;;;4.82;;
51384;SDS011;37478;55.682;37.462;2022-08-19T01:08:44;11.75;;;6.15;;
51384;SDS011;37478;55.682;37.462;2022-08-19T01:11:09;7.70;;;5.43;;
51384;SDS011;37478;55.682;37.462;2022-08-19T01:13:34;10.23;;;5.35;;
51384;SDS011;37478;55.682;37.462;2022-08-19T01:16:02;7.50;;;5.60;;
51384;SDS011;37478;55.682;37.462;2022-08-19T01:18:28;7.32;;;4.78;;
51384;SDS011;37478;55.682;37.462;2022-08-19T01:20:54;9.13;;;4.70;;
51384;SDS011;37478;55.682;37.462;2022-08-19T01:23:21;15.00;;;5.70;;
51384;SDS011;37478;55.682;37.462;2022-08-19T01:26:06;11.85;;;4.95;;
51384;SDS011;37478;55.682;37.462;2022-08-19T01:28:32;10.10;;;5.10;;
51384;SDS011;37478;55.682;37.462;2022-08-19T01:30:57;10.57;;;6.10;;
51384;SDS011;37478;55.682;37.462;2022-08-19T01:33:22;11.73;;;5.35;;
51384;SDS011;37478;55.682;37.462;2022-08-19T01:35:48;9.85;;;5.22;;
51384;SDS011;37478;55.682;37.462;2022-08-19T01:38:23;13.30;;;6.80;;
51384;SDS011;37478;55.682;37.462;2022-08-19T01:40:49;9.32;;;4.85;;
51384;SDS011;37478;55.682;37.462;2022-08-19T01:43:15;9.23;;;5.47;;
51384;SDS011;37478;55.682;37.462;2022-08-19T01:45:41;8.95;;;5.63;;
51384;SDS011;37478;55.682;37.462;2022-08-19T01:48:06;9.43;;;5.28;;
51384;SDS011;37478;55.682;37.462;2022-08-19T01:50:32;9.55;;;5.00;;
51384;SDS011;37478;55.682;37.462;2022-08-19T01:52:58;7.18;;;4.80;;
51384;SDS011;37478;55.682;37.462;2022-08-19T01:55:24;7.63;;;4.57;;
51384;SDS011;37478;55.682;37.462;2022-08-19T01:57:52;10.27;;;5.10;;
51384;SDS011;37478;55.682;37.462;2022-08-19T02:00:19;8.52;;;4.60;;
51384;SDS011;37478;55.682;37.462;2022-08-19T02:02:45;10.60;;;5.20;;
51384;SDS011;37478;55.682;37.462;2022-08-19T02:05:10;19.88;;;5.20;;
51384;SDS011;37478;55.682;37.462;2022-08-19T02:07:36;8.13;;;4.60;;
51384;SDS011;37478;55.682;37.462;2022-08-19T02:10:06;10.10;;;5.50;;
51384;SDS011;37478;55.682;37.462;2022-08-19T02:12:32;8.68;;;4.95;;
51384;SDS011;37478;55.682;37.462;2022-08-19T02:14:58;7.93;;;5.00;;
51384;SDS011;37478;55.682;37.462;2022-08-19T02:17:23;9.05;;;4.32;;
51384;SDS011;37478;55.682;37.462;2022-08-19T02:19:49;8.05;;;4.85;;
51384;SDS011;37478;55.682;37.462;2022-08-19T02:22:15;13.05;;;5.20;;
51384;SDS011;37478;55.682;37.462;2022-08-19T02:24:40;7.22;;;5.03;;
51384;SDS011;37478;55.682;37.462;2022-08-19T02:27:05;8.27;;;4.88;;
51384;SDS011;37478;55.682;37.462;2022-08-19T02:29:31;12.65;;;5.07;;
51384;SDS011;37478;55.682;37.462;2022-08-19T02:31:56;8.73;;;5.22;;
51384;SDS011;37478;55.682;37.462;2022-08-19T02:34:22;8.40;;;4.75;;
51384;SDS011;37478;55.682;37.462;2022-08-19T02:36:47;13.93;;;5.63;;
51384;SDS011;37478;55.682;37.462;2022-08-19T02:39:12;8.63;;;5.18;;
51384;SDS011;37478;55.682;37.462;2022-08-19T02:41:38;7.13;;;5.35;;
51384;SDS011;37478;55.682;37.462;2022-08-19T02:44:03;6.80;;;5.20;;
51384;SDS011;37478;55.682;37.462;2022-08-19T02:46:30;8.85;;;5.50;;
51384;SDS011;37478;55.682;37.462;2022-08-19T02:48:57;9.73;;;5.45;;
51384;SDS011;37478;55.682;37.462;2022-08-19T02:51:26;10.93;;;5.15;;
51384;SDS011;37478;55.682;37.462;2022-08-19T02:53:51;9.68;;;5.10;;
51384;SDS011;37478;55.682;37.462;2022-08-19T02:56:17;10.88;;;4.80;;
51384;SDS011;37478;55.682;37.462;2022-08-19T02:58:43;9.20;;;4.97;;
51384;SDS011;37478;55.682;37.462;2022-08-19T03:01:09;11.85;;;5.32;;
51384;SDS011;37478;55.682;37.462;2022-08-19T03:03:35;11.18;;;5.35;;
51384;SDS011;37478;55.682;37.462;2022-08-19T03:06:14;7.65;;;5.65;;
51384;SDS011;37478;55.682;37.462;2022-08-19T03:08:41;10.05;;;6.53;;
51384;SDS011;37478;55.682;37.462;2022-08-19T03:11:11;9.80;;;4.93;;
51384;SDS011;37478;55.682;37.462;2022-08-19T03:13:37;11.20;;;5.10;;
51384;SDS011;37478;55.682;37.462;2022-08-19T03:16:04;9.95;;;5.30;;
51384;SDS011;37478;55.682;37.462;2022-08-19T03:18:29;14.40;;;4.80;;
51384;SDS011;37478;55.682;37.462;2022-08-19T03:20:54;7.40;;;4.80;;
51384;SDS011;37478;55.682;37.462;2022-08-19T03:23:20;9.00;;;5.40;;
51384;SDS011;37478;55.682;37.462;2022-08-19T03:25:47;10.95;;;5.65;;
51384;SDS011;37478;55.682;37.462;2022-08-19T03:28:13;8.25;;;5.43;;
51384;SDS011;37478;55.682;37.462;2022-08-19T03:30:39;9.38;;;4.57;;
51384;SDS011;37478;55.682;37.462;2022-08-19T03:33:09;9.23;;;5.50;;
51384;SDS011;37478;55.682;37.462;2022-08-19T03:35:34;10.75;;;5.35;;
51384;SDS011;37478;55.682;37.462;2022-08-19T03:38:03;12.38;;;5.30;;
51384;SDS011;37478;55.682;37.462;2022-08-19T03:40:28;9.75;;;5.18;;
51384;SDS011;37478;55.682;37.462;2022-08-19T03:42:55;10.05;;;5.65;;
51384;SDS011;37478;55.682;37.462;2022-08-19T03:45:21;14.15;;;5.65;;
51384;SDS011;37478;55.682;37.462;2022-08-19T03:47:46;12.50;;;5.65;;
51384;SDS011;37478;55.682;37.462;2022-08-19T03:50:11;8.93;;;5.88;;
51384;SDS011;37478;55.682;37.462;2022-08-19T03:52:37;9.75;;;5.45;;
51384;SDS011;37478;55.682;37.462;2022-08-19T03:55:02;10.45;;;5.45;;
51384;SDS011;37478;55.682;37.462;2022-08-19T03:57:28;12.48;;;5.70;;
51384;SDS011;37478;55.682;37.462;2022-08-19T03:59:53;11.90;;;5.80;;
51384;SDS011;37478;55.682;37.462;2022-08-19T04:02:18;11.25;;;5.28;;
51384;SDS011;37478;55.682;37.462;2022-08-19T04:04:44;12.52;;;5.15;;
51384;SDS011;37478;55.682;37.462;2022-08-19T04:07:09;11.82;;;5.57;;
51384;SDS011;37478;55.682;37.462;2022-08-19T04:09:35;10.35;;;5.35;;
51384;SDS011;37478;55.682;37.462;2022-08-19T04:12:04;16.90;;;5.28;;
51384;SDS011;37478;55.682;37.462;2022-08-19T04:14:30;7.00;;;5.10;;
51384;SDS011;37478;55.682;37.462;2022-08-19T04:16:57;9.25;;;5.82;;
51384;SDS011;37478;55.682;37.462;2022-08-19T04:19:22;11.35;;;5.63;;
51384;SDS011;37478;55.682;37.462;2022-08-19T04:21:49;10.80;;;5.72;;
51384;SDS011;37478;55.682;37.462;2022-08-19T04:24:15;9.90;;;5.57;;
51384;SDS011;37478;55.682;37.462;2022-08-19T04:26:41;11.63;;;6.25;;
51384;SDS011;37478;55.682;37.462;2022-08-19T04:29:08;10.40;;;5.05;;
51384;SDS011;37478;55.682;37.462;2022-08-19T04:31:33;11.77;;;5.95;;
51384;SDS011;37478;55.682;37.462;2022-08-19T04:34:01;10.45;;;4.72;;
51384;SDS011;37478;55.682;37.462;2022-08-19T04:36:28;10.77;;;5.30;;
51384;SDS011;37478;55.682;37.462;2022-08-19T04:38:58;12.20;;;5.30;;
51384;SDS011;37478;55.682;37.462;2022-08-19T04:41:25;10.90;;;5.65;;
51384;SDS011;37478;55.682;37.462;2022-08-19T04:44:09;8.27;;;5.43;;
51384;SDS011;37478;55.682;37.462;2022-08-19T04:46:35;10.15;;;5.10;;
51384;SDS011;37478;55.682;37.462;2022-08-19T04:49:01;9.10;;;5.43;;
51384;SDS011;37478;55.682;37.462;2022-08-19T04:51:27;12.98;;;5.40;;
51384;SDS011;37478;55.682;37.462;2022-08-19T04:53:55;10.57;;;5.30;;
51384;SDS011;37478;55.682;37.462;2022-08-19T04:56:20;10.65;;;5.20;;
51384;SDS011;37478;55.682;37.462;2022-08-19T04:58:47;10.00;;;5.43;;
51384;SDS011;37478;55.682;37.462;2022-08-19T05:01:13;12.93;;;6.35;;
51384;SDS011;37478;55.682;37.462;2022-08-19T05:03:38;11.52;;;5.40;;
51384;SDS011;37478;55.682;37.462;2022-08-19T05:06:08;13.15;;;6.30;;
51384;SDS011;37478;55.682;37.462;2022-08-19T05:08:35;11.77;;;5.82;;
51384;SDS011;37478;55.682;37.462;2022-08-19T05:11:06;9.57;;;5.78;;
51384;SDS011;37478;55.682;37.462;2022-08-19T05:13:32;18.00;;;6.38;;
51384;SDS011;37478;55.682;37.462;2022-08-19T05:15:58;8.98;;;5.45;;
51384;SDS011;37478;55.682;37.462;2022-08-19T05:18:23;12.45;;;5.82;;
51384;SDS011;37478;55.682;37.462;2022-08-19T05:21:08;14.82;;;5.75;;
51384;SDS011;37478;55.682;37.462;2022-08-19T05:23:51;13.65;;;6.10;;
51384;SDS011;37478;55.682;37.462;2022-08-19T05:26:17;11.63;;;5.97;;
51384;SDS011;37478;55.682;37.462;2022-08-19T05:28:42;10.38;;;5.25;;
51384;SDS011;37478;55.682;37.462;2022-08-19T05:31:08;8.68;;;5.30;;
51384;SDS011;37478;55.682;37.462;2022-08-19T05:33:33;16.08;;;6.38;;
51384;SDS011;37478;55.682;37.462;2022-08-19T05:35:58;11.88;;;5.75;;
51384;SDS011;37478;55.682;37.462;2022-08-19T05:38:24;15.55;;;6.53;;
51384;SDS011;37478;55.682;37.462;2022-08-19T05:40:51;12.18;;;6.38;;
51384;SDS011;37478;55.682;37.462;2022-08-19T05:43:16;10.70;;;5.88;;
51384;SDS011;37478;55.682;37.462;2022-08-19T05:45:42;15.40;;;6.32;;
51384;SDS011;37478;55.682;37.462;2022-08-19T05:48:09;13.40;;;6.50;;
51384;SDS011;37478;55.682;37.462;2022-08-19T05:50:36;11.75;;;6.60;;
51384;SDS011;37478;55.682;37.462;2022-08-19T05:53:02;11.00;;;5.57;;
51384;SDS011;37478;55.682;37.462;2022-08-19T05:55:27;15.25;;;7.20;;
51384;SDS011;37478;55.682;37.462;2022-08-19T05:57:52;12.40;;;5.40;;
51384;SDS011;37478;55.682;37.462;2022-08-19T06:00:18;12.05;;;5.63;;
51384;SDS011;37478;55.682;37.462;2022-08-19T06:02:43;9.70;;;5.90;;
51384;SDS011;37478;55.682;37.462;2022-08-19T06:05:09;13.98;;;6.10;;
51384;SDS011;37478;55.682;37.462;2022-08-19T06:07:35;17.10;;;6.57;;
51384;SDS011;37478;55.682;37.462;2022-08-19T06:10:01;13.40;;;6.32;;
51384;SDS011;37478;55.682;37.462;2022-08-19T06:12:27;13.63;;;6.88;;
51384;SDS011;37478;55.682;37.462;2022-08-19T06:14:53;17.00;;;6.75;;
51384;SDS011;37478;55.682;37.462;2022-08-19T06:17:19;19.38;;;6.30;;
51384;SDS011;37478;55.682;37.462;2022-08-19T06:19:46;12.60;;;5.15;;
51384;SDS011;37478;55.682;37.462;2022-08-19T06:22:11;12.98;;;5.97;;
51384;SDS011;37478;55.682;37.462;2022-08-19T06:24:37;10.88;;;6.00;;
51384;SDS011;37478;55.682;37.462;2022-08-19T06:27:02;14.82;;;6.05;;
51384;SDS011;37478;55.682;37.462;2022-08-19T06:29:28;14.10;;;6.15;;
51384;SDS011;37478;55.682;37.462;2022-08-19T06:31:55;14.77;;;6.60;;
51384;SDS011;37478;55.682;37.462;2022-08-19T06:34:21;16.00;;;5.85;;
51384;SDS011;37478;55.682;37.462;2022-08-19T06:36:47;13.20;;;5.75;;
51384;SDS011;37478;55.682;37.462;2022-08-19T06:39:14;11.30;;;5.65;;
51384;SDS011;37478;55.682;37.462;2022-08-19T06:41:41;15.15;;;5.93;;
51384;SDS011;37478;55.682;37.462;2022-08-19T06:44:06;11.40;;;7.45;;
51384;SDS011;37478;55.682;37.462;2022-08-19T06:46:32;14.88;;;5.57;;
51384;SDS011;37478;55.682;37.462;2022-08-19T06:48:57;8.88;;;5.45;;
51384;SDS011;37478;55.682;37.462;2022-08-19T06:51:23;8.43;;;5.97;;
51384;SDS011;37478;55.682;37.462;2022-08-19T06:53:49;10.48;;;5.30;;
51384;SDS011;37478;55.682;37.462;2022-08-19T06:56:15;9.02;;;5.30;;
51384;SDS011;37478;55.682;37.462;2022-08-19T06:58:41;8.18;;;6.10;;
51384;SDS011;37478;55.682;37.462;2022-08-19T07:01:06;10.88;;;6.20;;
51384;SDS011;37478;55.682;37.462;2022-08-19T07:03:33;10.80;;;5.82;;
51384;SDS011;37478;55.682;37.462;2022-08-19T07:06:13;12.07;;;6.65;;
51384;SDS011;37478;55.682;37.462;2022-08-19T07:08:40;13.13;;;6.20;;
51384;SDS011;37478;55.682;37.462;2022-08-19T07:11:08;11.48;;;5.38;;
51384;SDS011;37478;55.682;37.462;2022-08-19T07:13:34;10.10;;;5.32;;
51384;SDS011;37478;55.682;37.462;2022-08-19T07:16:06;14.30;;;5.88;;
51384;SDS011;37478;55.682;37.462;2022-08-19T07:18:31;16.35;;;6.93;;
51384;SDS011;37478;55.682;37.462;2022-08-19T07:23:53;8.20;;;5.70;;
51384;SDS011;37478;55.682;37.462;2022-08-19T07:26:22;9.95;;;5.03;;
51384;SDS011;37478;55.682;37.462;2022-08-19T07:28:48;13.43;;;5.82;;
51384;SDS011;37478;55.682;37.462;2022-08-19T07:31:15;13.15;;;6.25;;
51384;SDS011;37478;55.682;37.462;2022-08-19T07:33:43;14.82;;;5.80;;
51384;SDS011;37478;55.682;37.462;2022-08-19T07:36:10;11.63;;;6.05;;
51384;SDS011;37478;55.682;37.462;2022-08-19T07:38:42;10.95;;;5.70;;
51384;SDS011;37478;55.682;37.462;2022-08-19T07:41:09;10.38;;;5.68;;
51384;SDS011;37478;55.682;37.462;2022-08-19T07:43:35;10.63;;;5.82;;
51384;SDS011;37478;55.682;37.462;2022-08-19T07:46:00;15.10;;;6.25;;
51384;SDS011;37478;55.682;37.462;2022-08-19T07:48:26;10.25;;;5.18;;
51384;SDS011;37478;55.682;37.462;2022-08-19T07:50:56;11.80;;;5.55;;
51384;SDS011;37478;55.682;37.462;2022-08-19T07:53:22;10.48;;;5.65;;
51384;SDS011;37478;55.682;37.462;2022-08-19T07:55:48;12.32;;;5.28;;
51384;SDS011;37478;55.682;37.462;2022-08-19T07:58:14;11.68;;;5.75;;
51384;SDS011;37478;55.682;37.462;2022-08-19T08:00:40;8.98;;;5.47;;
51384;SDS011;37478;55.682;37.462;2022-08-19T08:03:06;12.75;;;5.63;;
51384;SDS011;37478;55.682;37.462;2022-08-19T08:05:33;10.60;;;5.43;;
51384;SDS011;37478;55.682;37.462;2022-08-19T08:08:17;8.88;;;4.93;;
51384;SDS011;37478;55.682;37.462;2022-08-19T08:11:00;14.32;;;5.10;;
51384;SDS011;37478;55.682;37.462;2022-08-19T08:13:26;19.10;;;5.18;;
51384;SDS011;37478;55.682;37.462;2022-08-19T08:15:52;9.88;;;5.03;;
51384;SDS011;37478;55.682;37.462;2022-08-19T08:18:17;11.45;;;4.97;;
51384;SDS011;37478;55.682;37.462;2022-08-19T08:20:43;13.32;;;4.97;;
51384;SDS011;37478;55.682;37.462;2022-08-19T08:23:09;14.25;;;4.97;;
51384;SDS011;37478;55.682;37.462;2022-08-19T08:25:55;14.93;;;5.45;;
51384;SDS011;37478;55.682;37.462;2022-08-19T08:28:20;8.82;;;5.00;;
51384;SDS011;37478;55.682;37.462;2022-08-19T08:30:46;7.32;;;4.43;;
51384;SDS011;37478;55.682;37.462;2022-08-19T08:33:13;12.93;;;6.05;;
51384;SDS011;37478;55.682;37.462;2022-08-19T08:35:39;12.45;;;5.15;;
51384;SDS011;37478;55.682;37.462;2022-08-19T08:38:06;10.07;;;5.10;;
51384;SDS011;37478;55.682;37.462;2022-08-19T08:41:06;7.53;;;5.43;;
51384;SDS011;37478;55.682;37.462;2022-08-19T08:43:40;14.05;;;5.55;;
51384;SDS011;37478;55.682;37.462;2022-08-19T08:46:10;10.85;;;5.70;;
51384;SDS011;37478;55.682;37.462;2022-08-19T08:49:20;6.75;;;4.90;;
51384;SDS011;37478;55.682;37.462;2022-08-19T08:51:28;10.55;;;5.20;;
51384;SDS011;37478;55.682;37.462;2022-08-19T08:53:56;11.32;;;5.68;;
51384;SDS011;37478;55.682;37.462;2022-08-19T08:56:22;7.03;;;4.93;;
51384;SDS011;37478;55.682;37.462;2022-08-19T08:58:58;5.88;;;4.53;;
51384;SDS011;37478;55.682;37.462;2022-08-19T09:01:25;9.10;;;4.70;;
51384;SDS011;37478;55.682;37.462;2022-08-19T09:03:50;6.70;;;4.50;;
51384;SDS011;37478;55.682;37.462;2022-08-19T09:11:19;8.13;;;4.20;;
51384;SDS011;37478;55.682;37.462;2022-08-19T09:13:57;5.35;;;4.82;;
51384;SDS011;37478;55.682;37.462;2022-08-19T09:16:25;11.10;;;4.20;;
51384;SDS011;37478;55.682;37.462;2022-08-19T09:18:54;5.80;;;3.85;;
51384;SDS011;37478;55.682;37.462;2022-08-19T09:21:23;8.27;;;4.25;;
51384;SDS011;37478;55.682;37.462;2022-08-19T09:23:50;9.27;;;3.90;;
51384;SDS011;37478;55.682;37.462;2022-08-19T09:26:16;9.82;;;4.45;;
51384;SDS011;37478;55.682;37.462;2022-08-19T09:28:45;9.50;;;4.75;;
51384;SDS011;37478;55.682;37.462;2022-08-19T09:31:16;8.82;;;4.43;;
51384;SDS011;37478;55.682;37.462;2022-08-19T09:33:42;12.55;;;4.22;;
51384;SDS011;37478;55.682;37.462;2022-08-19T09:36:11;6.28;;;4.55;;
51384;SDS011;37478;55.682;37.462;2022-08-19T09:38:37;10.35;;;4.45;;
51384;SDS011;37478;55.682;37.462;2022-08-19T09:41:06;7.22;;;4.68;;
51384;SDS011;37478;55.682;37.462;2022-08-19T09:43:32;9.07;;;4.85;;
51384;SDS011;37478;55.682;37.462;2022-08-19T09:45:59;8.10;;;4.72;;
51384;SDS011;37478;55.682;37.462;2022-08-19T09:48:25;10.98;;;5.22;;
51384;SDS011;37478;55.682;37.462;2022-08-19T09:50:50;9.90;;;4.70;;
51384;SDS011;37478;55.682;37.462;2022-08-19T09:53:16;10.98;;;4.80;;
51384;SDS011;37478;55.682;37.462;2022-08-19T09:55:42;9.65;;;5.32;;
51384;SDS011;37478;55.682;37.462;2022-08-19T09:58:08;10.90;;;5.32;;
51384;SDS011;37478;55.682;37.462;2022-08-19T10:00:33;10.95;;;5.10;;
51384;SDS011;37478;55.682;37.462;2022-08-19T10:02:59;7.43;;;5.10;;
51384;SDS011;37478;55.682;37.462;2022-08-19T10:05:24;9.27;;;4.82;;
51384;SDS011;37478;55.682;37.462;2022-08-19T10:08:08;10.63;;;4.20;;
51384;SDS011;37478;55.682;37.462;2022-08-19T10:10:37;11.88;;;4.63;;
51384;SDS011;37478;55.682;37.462;2022-08-19T10:13:02;9.57;;;3.58;;
51384;SDS011;37478;55.682;37.462;2022-08-19T10:15:27;10.00;;;4.00;;
51384;SDS011;37478;55.682;37.462;2022-08-19T10:17:52;8.80;;;4.07;;
51384;SDS011;37478;55.682;37.462;2022-08-19T10:20:18;7.40;;;4.25;;
51384;SDS011;37478;55.682;37.462;2022-08-19T10:22:43;9.32;;;3.92;;
51384;SDS011;37478;55.682;37.462;2022-08-19T10:25:09;11.60;;;3.55;;
51384;SDS011;37478;55.682;37.462;2022-08-19T10:27:34;10.52;;;4.15;;
51384;SDS011;37478;55.682;37.462;2022-08-19T10:30:00;13.30;;;4.80;;
51384;SDS011;37478;55.682;37.462;2022-08-19T10:32:26;9.30;;;4.30;;
51384;SDS011;37478;55.682;37.462;2022-08-19T10:34:52;7.38;;;4.13;;
51384;SDS011;37478;55.682;37.462;2022-08-19T10:37:17;11.25;;;4.18;;
51384;SDS011;37478;55.682;37.462;2022-08-19T10:39:44;9.48;;;3.58;;
51384;SDS011;37478;55.682;37.462;2022-08-19T10:42:10;13.15;;;3.80;;
51384;SDS011;37478;55.682;37.462;2022-08-19T10:44:36;8.98;;;4.35;;
51384;SDS011;37478;55.682;37.462;2022-08-19T10:47:02;24.08;;;5.28;;
51384;SDS011;37478;55.682;37.462;2022-08-19T10:49:27;7.50;;;3.40;;
51384;SDS011;37478;55.682;37.462;2022-08-19T10:51:53;8.68;;;3.70;;
51384;SDS011;37478;55.682;37.462;2022-08-19T10:54:36;12.98;;;3.60;;
51384;SDS011;37478;55.682;37.462;2022-08-19T10:57:20;10.73;;;3.53;;
51384;SDS011;37478;55.682;37.462;2022-08-19T10:59:49;11.02;;;4.50;;
51384;SDS011;37478;55.682;37.462;2022-08-19T11:02:14;8.70;;;3.70;;
51384;SDS011;37478;55.682;37.462;2022-08-19T11:04:39;11.32;;;4.32;;
51384;SDS011;37478;55.682;37.462;2022-08-19T11:07:05;9.45;;;3.55;;
51384;SDS011;37478;55.682;37.462;2022-08-19T11:09:35;6.45;;;3.67;;
51384;SDS011;37478;55.682;37.462;2022-08-19T11:12:01;10.52;;;3.47;;
51384;SDS011;37478;55.682;37.462;2022-08-19T11:14:27;12.57;;;4.20;;
51384;SDS011;37478;55.682;37.462;2022-08-19T11:16:53;6.85;;;3.72;;
51384;SDS011;37478;55.682;37.462;2022-08-19T11:19:20;11.68;;;3.65;;
51384;SDS011;37478;55.682;37.462;2022-08-19T11:21:48;12.00;;;3.95;;
51384;SDS011;37478;55.682;37.462;2022-08-19T11:24:19;4.95;;;3.55;;
51384;SDS011;37478;55.682;37.462;2022-08-19T11:26:45;7.97;;;3.45;;
51384;SDS011;37478;55.682;37.462;2022-08-19T11:29:11;6.55;;;3.47;;
51384;SDS011;37478;55.682;37.462;2022-08-19T11:31:38;6.90;;;3.85;;
51384;SDS011;37478;55.682;37.462;2022-08-19T11:34:05;9.68;;;3.45;;
51384;SDS011;37478;55.682;37.462;2022-08-19T11:36:31;9.95;;;4.10;;
51384;SDS011;37478;55.682;37.462;2022-08-19T11:39:00;7.75;;;4.18;;
51384;SDS011;37478;55.682;37.462;2022-08-19T11:41:25;7.03;;;3.70;;
51384;SDS011;37478;55.682;37.462;2022-08-19T11:43:51;5.75;;;3.45;;
51384;SDS011;37478;55.682;37.462;2022-08-19T11:46:19;6.55;;;3.83;;
51384;SDS011;37478;55.682;37.462;2022-08-19T11:48:45;15.68;;;4.28;;
51384;SDS011;37478;55.682;37.462;2022-08-19T11:51:14;9.18;;;4.22;;
51384;SDS011;37478;55.682;37.462;2022-08-19T11:53:40;12.50;;;4.25;;
51384;SDS011;37478;55.682;37.462;2022-08-19T11:56:06;10.52;;;4.22;;
51384;SDS011;37478;55.682;37.462;2022-08-19T11:58:31;7.88;;;3.50;;
51384;SDS011;37478;55.682;37.462;2022-08-19T12:00:57;7.47;;;4.00;;
51384;SDS011;37478;55.682;37.462;2022-08-19T12:03:22;5.97;;;3.90;;
51384;SDS011;37478;55.682;37.462;2022-08-19T12:05:47;13.25;;;4.78;;
51384;SDS011;37478;55.682;37.462;2022-08-19T12:08:13;7.78;;;4.63;;
51384;SDS011;37478;55.682;37.462;2022-08-19T12:10:40;17.73;;;4.68;;
51384;SDS011;37478;55.682;37.462;2022-08-19T12:13:07;13.52;;;4.38;;
51384;SDS011;37478;55.682;37.462;2022-08-19T12:15:36;7.03;;;4.25;;
51384;SDS011;37478;55.682;37.462;2022-08-19T12:18:02;10.85;;;4.63;;
51384;SDS011;37478;55.682;37.462;2022-08-19T12:20:27;12.55;;;3.97;;
51384;SDS011;37478;55.682;37.462;2022-08-19T12:22:52;10.40;;;3.88;;
51384;SDS011;37478;55.682;37.462;2022-08-19T12:25:18;10.15;;;5.10;;
51384;SDS011;37478;55.682;37.462;2022-08-19T12:27:43;6.78;;;4.07;;
51384;SDS011;37478;55.682;37.462;2022-08-19T12:30:10;11.48;;;4.20;;
51384;SDS011;37478;55.682;37.462;2022-08-19T12:32:36;6.07;;;4.18;;
51384;SDS011;37478;55.682;37.462;2022-08-19T12:35:01;8.85;;;4.00;;
51384;SDS011;37478;55.682;37.462;2022-08-19T12:37:27;9.27;;;4.03;;
51384;SDS011;37478;55.682;37.462;2022-08-19T12:39:52;8.95;;;4.53;;
51384;SDS011;37478;55.682;37.462;2022-08-19T12:42:17;9.95;;;4.57;;
51384;SDS011;37478;55.682;37.462;2022-08-19T12:44:43;9.38;;;5.03;;
51384;SDS011;37478;55.682;37.462;2022-08-19T12:47:11;7.93;;;3.88;;
51384;SDS011;37478;55.682;37.462;2022-08-19T12:49:38;8.48;;;4.80;;
51384;SDS011;37478;55.682;37.462;2022-08-19T12:52:04;5.82;;;4.03;;
51384;SDS011;37478;55.682;37.462;2022-08-19T12:54:30;9.43;;;4.60;;
51384;SDS011;37478;55.682;37.462;2022-08-19T12:56:56;12.18;;;4.30;;
51384;SDS011;37478;55.682;37.462;2022-08-19T12:59:21;11.90;;;3.97;;
51384;SDS011;37478;55.682;37.462;2022-08-19T13:01:47;15.00;;;4.97;;
51384;SDS011;37478;55.682;37.462;2022-08-19T13:04:12;11.30;;;4.32;;
51384;SDS011;37478;55.682;37.462;2022-08-19T13:06:37;10.63;;;4.50;;
51384;SDS011;37478;55.682;37.462;2022-08-19T13:09:03;7.78;;;4.38;;
51384;SDS011;37478;55.682;37.462;2022-08-19T13:11:29;7.43;;;4.55;;
51384;SDS011;37478;55.682;37.462;2022-08-19T13:13:57;8.52;;;4.55;;
51384;SDS011;37478;55.682;37.462;2022-08-19T13:16:23;18.98;;;5.10;;
51384;SDS011;37478;55.682;37.462;2022-08-19T13:18:48;6.05;;;4.28;;
51384;SDS011;37478;55.682;37.462;2022-08-19T13:21:17;7.32;;;4.30;;
51384;SDS011;37478;55.682;37.462;2022-08-19T13:23:44;14.07;;;4.53;;
51384;SDS011;37478;55.682;37.462;2022-08-19T13:26:10;14.32;;;4.80;;
51384;SDS011;37478;55.682;37.462;2022-08-19T13:28:36;8.55;;;4.13;;
51384;SDS011;37478;55.682;37.462;2022-08-19T13:31:21;10.38;;;5.00;;
51384;SDS011;37478;55.682;37.462;2022-08-19T13:34:05;10.38;;;5.35;;
51384;SDS011;37478;55.682;37.462;2022-08-19T13:36:34;13.07;;;6.35;;
51384;SDS011;37478;55.682;37.462;2022-08-19T13:38:59;11.13;;;7.30;;
51384;SDS011;37478;55.682;37.462;2022-08-19T13:41:24;9.07;;;6.57;;
51384;SDS011;37478;55.682;37.462;2022-08-19T13:43:50;12.73;;;6.45;;
51384;SDS011;37478;55.682;37.462;2022-08-19T13:46:15;14.43;;;7.90;;
51384;SDS011;37478;55.682;37.462;2022-08-19T13:48:41;19.58;;;7.63;;
51384;SDS011;37478;55.682;37.462;2022-08-19T13:51:07;20.40;;;7.15;;
51384;SDS011;37478;55.682;37.462;2022-08-19T13:53:35;13.68;;;7.43;;
51384;SDS011;37478;55.682;37.462;2022-08-19T13:56:04;14.10;;;7.20;;
51384;SDS011;37478;55.682;37.462;2022-08-19T13:58:30;13.07;;;7.28;;
51384;SDS011;37478;55.682;37.462;2022-08-19T14:00:56;16.15;;;8.57;;
51384;SDS011;37478;55.682;37.462;2022-08-19T14:03:24;14.65;;;11.48;;
51384;SDS011;37478;55.682;37.462;2022-08-19T14:05:49;24.30;;;12.73;;
51384;SDS011;37478;55.682;37.462;2022-08-19T14:08:14;22.88;;;12.82;;
51384;SDS011;37478;55.682;37.462;2022-08-19T14:10:40;14.13;;;10.77;;
51384;SDS011;37478;55.682;37.462;2022-08-19T14:13:09;20.58;;;10.85;;
51384;SDS011;37478;55.682;37.462;2022-08-19T14:15:34;17.60;;;12.48;;
51384;SDS011;37478;55.682;37.462;2022-08-19T14:17:59;21.98;;;11.82;;
51384;SDS011;37478;55.682;37.462;2022-08-19T14:20:25;20.58;;;13.77;;
51384;SDS011;37478;55.682;37.462;2022-08-19T14:22:50;27.38;;;17.67;;
51384;SDS011;37478;55.682;37.462;2022-08-19T14:25:17;20.25;;;18.17;;
51384;SDS011;37478;55.682;37.462;2022-08-19T14:27:43;21.00;;;18.00;;
51384;SDS011;37478;55.682;37.462;2022-08-19T14:30:10;22.92;;;17.77;;
51384;SDS011;37478;55.682;37.462;2022-08-19T14:32:35;28.95;;;17.73;;